createdAt,value
2022-11-02T00:00:03.943Z,22.1
2022-11-02T00:01:03.975Z,22.1
2022-11-02T00:02:04.058Z,22.1
2022-11-02T00:03:04.166Z,22.1
2022-11-02T00:04:30.404Z,21.9
2022-11-02T00:05:04.101Z,22.0
2022-11-02T00:06:04.096Z,22.0
2022-11-02T00:07:04.146Z,22.0
2022-11-02T00:08:04.118Z,22.0
2022-11-02T00:09:04.097Z,22.0
2022-11-02T00:10:04.107Z,22.0
2022-11-02T00:11:04.149Z,22.0
2022-11-02T00:12:04.088Z,22.0
2022-11-02T00:13:04.477Z,22.0
2022-11-02T00:14:04.096Z,22.0
2022-11-02T00:15:04.098Z,22.0
2022-11-02T00:16:04.132Z,22.0
2022-11-02T00:17:04.133Z,22.0
2022-11-02T00:19:04.115Z,22.0
2022-11-02T00:20:04.089Z,22.0
2022-11-02T00:21:04.126Z,22.0
2022-11-02T00:22:04.288Z,21.9
2022-11-02T00:23:04.299Z,21.9
2022-11-02T00:24:04.128Z,22.0
2022-11-02T00:25:04.117Z,21.9
2022-11-02T00:26:04.098Z,21.9
2022-11-02T00:27:04.133Z,21.9
2022-11-02T00:28:04.135Z,21.9
2022-11-02T00:29:04.141Z,21.9
2022-11-02T00:30:04.124Z,21.9
2022-11-02T00:31:04.118Z,21.9
2022-11-02T00:32:04.096Z,21.9
2022-11-02T00:33:04.398Z,21.9
2022-11-02T00:34:04.099Z,21.9
2022-11-02T00:35:04.590Z,21.9
2022-11-02T00:36:04.113Z,21.9
2022-11-02T00:37:04.142Z,21.9
2022-11-02T00:38:04.354Z,21.9
2022-11-02T00:39:04.122Z,21.9
2022-11-02T00:40:04.106Z,21.9
2022-11-02T00:41:04.167Z,21.9
2022-11-02T00:42:04.110Z,21.9
2022-11-02T00:43:04.138Z,21.8
2022-11-02T00:44:04.106Z,21.8
2022-11-02T00:45:04.118Z,21.8
2022-11-02T00:46:04.138Z,21.8
2022-11-02T00:47:04.164Z,21.8
2022-11-02T00:48:04.472Z,21.8
2022-11-02T00:49:04.144Z,21.8
2022-11-02T00:50:04.118Z,21.8
2022-11-02T00:51:04.109Z,21.8
2022-11-02T00:52:04.127Z,21.8
2022-11-02T00:53:04.140Z,21.8
2022-11-02T00:54:04.114Z,21.8
2022-11-02T00:55:04.188Z,21.8
2022-11-02T00:56:04.189Z,21.8
2022-11-02T00:57:04.517Z,21.8
2022-11-02T00:58:04.507Z,21.8
2022-11-02T00:59:04.146Z,21.8
2022-11-02T01:00:04.126Z,21.8
2022-11-02T01:01:04.191Z,21.7
2022-11-02T01:02:11.006Z,21.7
2022-11-02T01:03:04.591Z,21.7
2022-11-02T01:04:04.840Z,21.7
2022-11-02T01:05:04.576Z,21.7
2022-11-02T01:06:04.599Z,21.7
2022-11-02T01:07:04.585Z,21.7
2022-11-02T01:08:04.706Z,21.7
2022-11-02T01:09:04.600Z,21.7
2022-11-02T01:10:04.624Z,21.7
2022-11-02T01:11:04.630Z,21.7
2022-11-02T01:12:04.662Z,21.7
2022-11-02T01:13:04.577Z,21.7
2022-11-02T01:14:04.621Z,21.7
2022-11-02T01:15:04.605Z,21.7
2022-11-02T01:16:04.585Z,21.7
2022-11-02T01:17:04.580Z,21.7
2022-11-02T01:18:04.889Z,21.7
2022-11-02T01:19:04.603Z,21.7
2022-11-02T01:20:04.585Z,21.6
2022-11-02T01:21:04.606Z,21.6
2022-11-02T01:22:04.574Z,21.6
2022-11-02T01:23:04.592Z,21.6
2022-11-02T01:24:04.605Z,21.6
2022-11-02T01:25:04.593Z,21.6
2022-11-02T01:26:04.584Z,21.6
2022-11-02T01:27:04.590Z,21.6
2022-11-02T01:28:04.995Z,21.6
2022-11-02T01:29:04.588Z,21.6
2022-11-02T01:30:04.613Z,21.6
2022-11-02T01:31:04.603Z,21.6
2022-11-02T01:32:04.584Z,21.6
2022-11-02T01:33:04.625Z,21.6
2022-11-02T01:34:04.626Z,21.6
2022-11-02T01:35:04.580Z,21.6
2022-11-02T01:36:04.651Z,21.6
2022-11-02T01:37:04.584Z,21.6
2022-11-02T01:38:04.872Z,21.6
2022-11-02T01:39:04.571Z,21.6
2022-11-02T01:40:04.592Z,21.6
2022-11-02T01:41:04.613Z,21.6
2022-11-02T01:42:04.644Z,21.6
2022-11-02T01:43:04.589Z,21.6
2022-11-02T01:44:04.881Z,21.6
2022-11-02T01:45:04.611Z,21.6
2022-11-02T01:46:04.618Z,21.6
2022-11-02T01:47:04.624Z,21.6
2022-11-02T01:48:04.926Z,21.6
2022-11-02T01:49:04.586Z,21.5
2022-11-02T01:50:30.999Z,21.4
2022-11-02T01:51:03.730Z,21.5
2022-11-02T01:52:03.764Z,21.5
2022-11-02T01:53:03.787Z,21.5
2022-11-02T01:54:03.786Z,21.5
2022-11-02T01:55:03.778Z,21.5
2022-11-02T01:56:03.749Z,21.5
2022-11-02T01:57:03.760Z,21.5
2022-11-02T01:58:04.322Z,21.5
2022-11-02T01:59:03.785Z,21.5
2022-11-02T02:00:03.784Z,21.5
2022-11-02T02:01:03.787Z,21.5
2022-11-02T02:02:03.891Z,21.5
2022-11-02T02:03:03.760Z,21.5
2022-11-02T02:04:03.772Z,21.5
2022-11-02T02:05:03.757Z,21.5
2022-11-02T02:06:03.800Z,21.5
2022-11-02T02:07:03.771Z,21.5
2022-11-02T02:08:03.982Z,21.4
2022-11-02T02:09:03.748Z,21.4
2022-11-02T02:10:03.762Z,21.4
2022-11-02T02:11:03.785Z,21.4
2022-11-02T02:12:04.074Z,21.4
2022-11-02T02:13:03.779Z,21.4
2022-11-02T02:14:03.735Z,21.4
2022-11-02T02:15:03.744Z,21.4
2022-11-02T02:16:03.788Z,21.4
2022-11-02T02:17:03.779Z,21.4
2022-11-02T02:18:05.084Z,21.4
2022-11-02T02:19:03.767Z,21.4
2022-11-02T02:20:03.765Z,21.4
2022-11-02T02:21:03.764Z,21.4
2022-11-02T02:22:03.756Z,21.4
2022-11-02T02:23:03.846Z,21.4
2022-11-02T02:24:03.788Z,21.4
2022-11-02T02:25:04.745Z,21.4
2022-11-02T02:26:03.782Z,21.4
2022-11-02T02:27:03.766Z,21.4
2022-11-02T02:28:03.976Z,21.4
2022-11-02T02:29:03.780Z,21.4
2022-11-02T02:30:03.781Z,21.4
2022-11-02T02:31:03.765Z,21.4
2022-11-02T02:32:03.774Z,21.4
2022-11-02T02:33:03.792Z,21.4
2022-11-02T02:34:03.753Z,21.4
2022-11-02T02:35:03.789Z,21.4
2022-11-02T02:36:03.790Z,21.4
2022-11-02T02:37:03.791Z,21.4
2022-11-02T02:38:04.138Z,21.3
2022-11-02T02:39:03.785Z,21.4
2022-11-02T02:40:03.811Z,21.3
2022-11-02T02:41:03.821Z,21.3
2022-11-02T02:42:03.738Z,21.3
2022-11-02T02:43:04.720Z,21.3
2022-11-02T02:44:03.776Z,21.3
2022-11-02T02:45:03.788Z,21.3
2022-11-02T02:46:04.002Z,21.3
2022-11-02T02:47:03.790Z,21.3
2022-11-02T02:48:04.244Z,21.3
2022-11-02T02:49:03.748Z,21.3
2022-11-02T02:50:03.771Z,21.3
2022-11-02T02:51:03.862Z,21.3
2022-11-02T02:52:03.858Z,21.3
2022-11-02T02:53:03.785Z,21.3
2022-11-02T02:54:03.786Z,21.3
2022-11-02T02:55:03.790Z,21.3
2022-11-02T02:56:03.869Z,21.3
2022-11-02T02:57:03.783Z,21.3
2022-11-02T02:58:04.133Z,21.3
2022-11-02T02:59:03.813Z,21.3
2022-11-02T03:00:03.770Z,21.3
2022-11-02T03:01:03.819Z,21.3
2022-11-02T03:02:03.892Z,21.3
2022-11-02T03:03:03.795Z,21.3
2022-11-02T03:04:03.820Z,21.3
2022-11-02T03:05:03.845Z,21.2
2022-11-02T03:06:03.771Z,21.2
2022-11-02T03:07:03.769Z,21.2
2022-11-02T03:08:04.137Z,21.2
2022-11-02T03:09:03.849Z,21.2
2022-11-02T03:10:03.785Z,21.2
2022-11-02T03:11:03.785Z,21.2
2022-11-02T03:12:03.761Z,21.2
2022-11-02T03:13:03.757Z,21.2
2022-11-02T03:14:03.771Z,21.2
2022-11-02T03:15:03.750Z,21.2
2022-11-02T03:16:03.778Z,21.2
2022-11-02T03:17:03.812Z,21.2
2022-11-02T03:18:04.156Z,21.2
2022-11-02T03:19:03.769Z,21.2
2022-11-02T03:20:03.823Z,21.2
2022-11-02T03:21:03.790Z,21.2
2022-11-02T03:22:03.765Z,21.2
2022-11-02T03:23:03.823Z,21.2
2022-11-02T03:24:03.808Z,21.2
2022-11-02T03:25:03.775Z,21.2
2022-11-02T03:26:03.784Z,21.2
2022-11-02T03:27:03.856Z,21.2
2022-11-02T03:28:04.028Z,21.2
2022-11-02T03:29:03.915Z,21.2
2022-11-02T03:30:03.861Z,21.2
2022-11-02T03:31:03.874Z,21.2
2022-11-02T03:32:03.902Z,21.2
2022-11-02T03:33:03.888Z,21.2
2022-11-02T03:34:03.873Z,21.2
2022-11-02T03:35:03.918Z,21.2
2022-11-02T03:36:03.918Z,21.2
2022-11-02T03:37:03.875Z,21.2
2022-11-02T03:38:03.965Z,21.2
2022-11-02T03:39:03.760Z,21.2
2022-11-02T03:40:03.769Z,21.2
2022-11-02T03:41:03.802Z,21.2
2022-11-02T03:42:03.830Z,21.2
2022-11-02T03:43:03.776Z,21.1
2022-11-02T03:44:03.801Z,21.1
2022-11-02T03:45:03.771Z,21.1
2022-11-02T03:46:03.819Z,21.1
2022-11-02T03:47:03.793Z,21.1
2022-11-02T03:48:03.970Z,21.1
2022-11-02T03:49:07.599Z,21.1
2022-11-02T03:50:03.783Z,21.1
2022-11-02T03:51:03.769Z,21.1
2022-11-02T03:52:03.801Z,21.1
2022-11-02T03:53:03.824Z,21.1
2022-11-02T03:54:03.814Z,21.1
2022-11-02T03:55:03.811Z,21.1
2022-11-02T03:56:03.840Z,21.1
2022-11-02T03:58:04.125Z,21.1
2022-11-02T03:59:03.813Z,21.1
2022-11-02T04:00:03.781Z,21.1
2022-11-02T04:01:03.817Z,21.1
2022-11-02T04:02:03.914Z,21.1
2022-11-02T04:03:10.697Z,21.0
2022-11-02T04:04:03.693Z,21.1
2022-11-02T04:05:03.716Z,21.1
2022-11-02T04:06:03.706Z,21.1
2022-11-02T04:07:03.695Z,21.1
2022-11-02T04:08:04.025Z,21.1
2022-11-02T04:09:03.727Z,21.1
2022-11-02T04:10:03.757Z,21.1
2022-11-02T04:11:03.727Z,21.1
2022-11-02T04:12:03.688Z,21.1
2022-11-02T04:13:03.723Z,21.0
2022-11-02T04:14:03.680Z,21.0
2022-11-02T04:15:04.650Z,21.1
2022-11-02T04:16:03.680Z,21.1
2022-11-02T04:17:03.736Z,21.1
2022-11-02T04:18:03.996Z,21.0
2022-11-02T04:19:03.687Z,21.0
2022-11-02T04:20:03.924Z,21.1
2022-11-02T04:21:03.688Z,21.0
2022-11-02T04:22:03.712Z,21.0
2022-11-02T04:23:03.717Z,21.0
2022-11-02T04:24:03.677Z,21.0
2022-11-02T04:25:03.783Z,21.0
2022-11-02T04:26:03.703Z,21.0
2022-11-02T04:27:03.691Z,21.0
2022-11-02T04:28:03.950Z,21.0
2022-11-02T04:29:03.708Z,21.0
2022-11-02T04:30:03.682Z,21.0
2022-11-02T04:31:03.686Z,21.0
2022-11-02T04:32:03.684Z,21.0
2022-11-02T04:33:03.669Z,21.0
2022-11-02T04:34:03.678Z,21.0
2022-11-02T04:35:03.717Z,21.0
2022-11-02T04:36:03.680Z,21.0
2022-11-02T04:37:03.689Z,21.0
2022-11-02T04:38:04.034Z,21.0
2022-11-02T04:39:03.680Z,21.0
2022-11-02T04:40:03.707Z,21.0
2022-11-02T04:41:03.741Z,21.0
2022-11-02T04:42:03.691Z,21.0
2022-11-02T04:43:03.678Z,21.0
2022-11-02T04:44:03.685Z,21.0
2022-11-02T04:45:03.686Z,21.0
2022-11-02T04:46:03.688Z,21.0
2022-11-02T04:47:03.731Z,21.0
2022-11-02T04:48:04.047Z,21.0
2022-11-02T04:49:03.686Z,21.0
2022-11-02T04:50:03.755Z,20.9
2022-11-02T04:51:03.685Z,20.9
2022-11-02T04:52:03.696Z,20.9
2022-11-02T04:53:03.715Z,20.9
2022-11-02T04:54:03.677Z,20.9
2022-11-02T04:55:03.691Z,20.9
2022-11-02T04:56:03.689Z,20.9
2022-11-02T04:57:03.689Z,20.9
2022-11-02T04:58:04.174Z,20.9
2022-11-02T05:00:20.078Z,20.9
2022-11-02T05:00:24.024Z,20.7
2022-11-02T05:01:03.687Z,20.9
2022-11-02T05:02:03.777Z,21.0
2022-11-02T05:03:06.839Z,21.0
2022-11-02T05:04:03.817Z,21.0
2022-11-02T05:05:03.739Z,21.1
2022-11-02T05:06:03.700Z,21.1
2022-11-02T05:07:03.689Z,21.1
2022-11-02T05:08:04.023Z,21.2
2022-11-02T05:09:03.693Z,21.2
2022-11-02T05:10:04.773Z,21.2
2022-11-02T05:11:03.739Z,21.2
2022-11-02T05:12:03.714Z,21.3
2022-11-02T05:13:04.030Z,21.3
2022-11-02T05:14:03.685Z,21.3
2022-11-02T05:15:03.758Z,21.3
2022-11-02T05:16:03.729Z,21.4
2022-11-02T05:17:03.751Z,21.4
2022-11-02T05:18:04.264Z,21.4
2022-11-02T05:19:05.683Z,21.4
2022-11-02T05:20:03.700Z,21.4
2022-11-02T05:21:03.721Z,21.5
2022-11-02T05:22:03.698Z,21.5
2022-11-02T05:23:03.933Z,21.5
2022-11-02T05:24:03.693Z,21.5
2022-11-02T05:25:03.690Z,21.5
2022-11-02T05:26:03.693Z,21.5
2022-11-02T05:27:03.699Z,21.4
2022-11-02T05:28:03.702Z,21.4
2022-11-02T05:29:03.725Z,21.4
2022-11-02T05:30:03.689Z,21.4
2022-11-02T05:31:03.695Z,21.4
2022-11-02T05:32:03.695Z,21.4
2022-11-02T05:33:03.989Z,21.4
2022-11-02T05:34:03.694Z,21.4
2022-11-02T05:35:03.718Z,21.4
2022-11-02T05:36:03.705Z,21.4
2022-11-02T05:37:03.695Z,21.4
2022-11-02T05:38:03.696Z,21.4
2022-11-02T05:39:03.704Z,21.4
2022-11-02T05:40:03.712Z,21.4
2022-11-02T05:41:03.732Z,21.4
2022-11-02T05:42:03.702Z,21.4
2022-11-02T05:43:04.111Z,21.4
2022-11-02T05:44:03.696Z,21.4
2022-11-02T05:45:03.705Z,21.4
2022-11-02T05:46:03.706Z,21.4
2022-11-02T05:47:03.761Z,21.4
2022-11-02T05:48:03.696Z,21.4
2022-11-02T05:49:03.706Z,21.6
2022-11-02T05:50:03.838Z,21.6
2022-11-02T05:51:03.750Z,21.7
2022-11-02T05:52:03.696Z,21.7
2022-11-02T05:53:03.939Z,21.7
2022-11-02T05:54:03.739Z,21.7
2022-11-02T05:55:03.714Z,21.8
2022-11-02T05:56:03.713Z,21.8
2022-11-02T05:57:03.745Z,21.9
2022-11-02T05:58:03.712Z,21.9
2022-11-02T05:59:03.730Z,21.9
2022-11-02T06:00:03.718Z,21.9
2022-11-02T06:01:03.707Z,21.9
2022-11-02T06:02:03.808Z,22.0
2022-11-02T06:03:04.204Z,22.0
2022-11-02T06:04:03.701Z,22.0
2022-11-02T06:05:03.775Z,22.0
2022-11-02T06:06:03.711Z,22.0
2022-11-02T06:07:03.713Z,22.0
2022-11-02T06:08:03.707Z,22.1
2022-11-02T06:09:07.159Z,22.1
2022-11-02T06:10:03.707Z,22.1
2022-11-02T06:11:03.705Z,22.1
2022-11-02T06:12:03.701Z,22.1
2022-11-02T06:13:04.128Z,22.1
2022-11-02T06:14:03.723Z,22.1
2022-11-02T06:15:03.746Z,22.1
2022-11-02T06:16:03.714Z,22.1
2022-11-02T06:17:03.715Z,22.1
2022-11-02T06:18:03.701Z,22.1
2022-11-02T06:19:03.821Z,22.0
2022-11-02T06:20:03.724Z,22.0
2022-11-02T06:21:03.784Z,22.0
2022-11-02T06:22:03.741Z,21.9
2022-11-02T06:23:04.039Z,21.9
2022-11-02T06:24:03.717Z,21.9
2022-11-02T06:25:42.276Z,21.9
2022-11-02T06:26:03.738Z,21.7
2022-11-02T06:27:03.755Z,21.8
2022-11-02T06:28:03.714Z,21.8
2022-11-02T06:29:03.709Z,21.8
2022-11-02T06:30:03.712Z,21.8
2022-11-02T06:31:03.717Z,21.8
2022-11-02T06:32:03.730Z,21.8
2022-11-02T06:33:06.939Z,21.7
2022-11-02T06:34:03.716Z,21.7
2022-11-02T06:35:03.728Z,21.8
2022-11-02T06:36:03.720Z,21.7
2022-11-02T06:37:03.747Z,21.7
2022-11-02T06:38:03.708Z,21.7
2022-11-02T06:39:03.758Z,21.7
2022-11-02T06:40:03.709Z,21.7
2022-11-02T06:41:03.728Z,21.7
2022-11-02T06:42:03.713Z,21.7
2022-11-02T06:43:16.148Z,21.7
2022-11-02T06:44:03.742Z,21.7
2022-11-02T06:45:03.780Z,21.7
2022-11-02T06:46:03.726Z,21.7
2022-11-02T06:47:03.720Z,21.7
2022-11-02T06:48:03.717Z,21.7
2022-11-02T06:49:03.728Z,21.7
2022-11-02T06:50:03.731Z,21.7
2022-11-02T06:51:03.860Z,21.7
2022-11-02T06:52:03.712Z,21.7
2022-11-02T06:53:04.183Z,21.7
2022-11-02T06:54:08.414Z,21.7
2022-11-02T06:55:03.726Z,21.7
2022-11-02T06:56:03.715Z,21.7
2022-11-02T06:57:03.899Z,21.7
2022-11-02T06:58:03.729Z,21.7
2022-11-02T06:59:03.737Z,21.7
2022-11-02T07:00:03.774Z,21.7
2022-11-02T07:01:03.866Z,21.7
2022-11-02T07:02:03.905Z,21.7
2022-11-02T07:03:04.144Z,21.7
2022-11-02T07:04:03.730Z,21.7
2022-11-02T07:05:03.736Z,21.7
2022-11-02T07:06:03.746Z,21.7
2022-11-02T07:07:03.721Z,21.7
2022-11-02T07:08:03.717Z,21.7
2022-11-02T07:09:03.778Z,21.7
2022-11-02T07:10:03.719Z,21.7
2022-11-02T07:11:03.728Z,21.7
2022-11-02T07:12:03.720Z,21.7
2022-11-02T07:13:04.051Z,21.7
2022-11-02T07:14:03.716Z,21.7
2022-11-02T07:15:03.756Z,21.7
2022-11-02T07:16:03.718Z,21.7
2022-11-02T07:17:03.722Z,21.7
2022-11-02T07:18:03.745Z,21.7
2022-11-02T07:19:03.734Z,21.7
2022-11-02T07:20:03.719Z,21.7
2022-11-02T07:21:03.757Z,21.7
2022-11-02T07:22:03.735Z,21.7
2022-11-02T07:23:04.113Z,21.7
2022-11-02T07:24:03.737Z,21.7
2022-11-02T07:25:03.736Z,21.7
2022-11-02T07:26:03.737Z,21.7
2022-11-02T07:27:03.785Z,21.7
2022-11-02T07:28:03.738Z,21.7
2022-11-02T07:29:03.734Z,21.7
2022-11-02T07:30:03.742Z,21.6
2022-11-02T07:31:03.728Z,21.6
2022-11-02T07:32:03.725Z,21.6
2022-11-02T07:33:04.156Z,21.6
2022-11-02T07:34:03.817Z,21.6
2022-11-02T07:35:03.740Z,21.6
2022-11-02T07:36:03.740Z,21.6
2022-11-02T07:37:03.739Z,21.6
2022-11-02T07:38:03.726Z,21.6
2022-11-02T07:39:03.767Z,21.6
2022-11-02T07:40:03.741Z,21.6
2022-11-02T07:41:03.745Z,21.6
2022-11-02T07:42:03.732Z,21.6
2022-11-02T07:43:04.107Z,21.6
2022-11-02T07:44:03.771Z,21.6
2022-11-02T07:45:03.807Z,21.6
2022-11-02T07:46:03.738Z,21.6
2022-11-02T07:47:03.740Z,21.6
2022-11-02T07:48:03.735Z,21.6
2022-11-02T07:49:03.743Z,21.6
2022-11-02T07:50:03.749Z,21.6
2022-11-02T07:51:03.779Z,21.6
2022-11-02T07:52:03.745Z,21.7
2022-11-02T07:53:03.997Z,21.7
2022-11-02T07:54:03.731Z,21.6
2022-11-02T07:55:03.743Z,21.6
2022-11-02T07:56:03.747Z,21.6
2022-11-02T07:57:03.806Z,21.6
2022-11-02T07:58:03.744Z,21.7
2022-11-02T07:59:03.736Z,21.6
2022-11-02T08:00:03.738Z,21.6
2022-11-02T08:01:03.748Z,21.6
2022-11-02T08:02:03.751Z,21.6
2022-11-02T08:04:34.652Z,21.4
2022-11-02T08:05:04.364Z,21.5
2022-11-02T08:06:04.362Z,21.6
2022-11-02T08:07:04.368Z,21.6
2022-11-02T08:08:04.849Z,21.6
2022-11-02T08:09:04.384Z,21.6
2022-11-02T08:10:04.370Z,21.6
2022-11-02T08:11:04.398Z,21.6
2022-11-02T08:12:05.906Z,21.6
2022-11-02T08:13:04.378Z,21.7
2022-11-02T08:14:04.370Z,21.6
2022-11-02T08:15:07.533Z,21.6
2022-11-02T08:16:04.377Z,21.6
2022-11-02T08:17:04.410Z,21.6
2022-11-02T08:18:04.692Z,21.7
2022-11-02T08:19:04.363Z,21.7
2022-11-02T08:20:04.626Z,21.6
2022-11-02T08:21:04.372Z,21.6
2022-11-02T08:22:04.381Z,21.7
2022-11-02T08:23:04.406Z,21.7
2022-11-02T08:24:04.398Z,21.7
2022-11-02T08:25:04.422Z,21.7
2022-11-02T08:26:04.373Z,21.7
2022-11-02T08:27:04.377Z,21.7
2022-11-02T08:28:04.649Z,21.7
2022-11-02T08:29:04.412Z,21.7
2022-11-02T08:30:04.381Z,21.6
2022-11-02T08:31:04.541Z,21.6
2022-11-02T08:32:04.381Z,21.7
2022-11-02T08:33:04.376Z,21.7
2022-11-02T08:34:04.384Z,21.6
2022-11-02T08:35:04.413Z,21.7
2022-11-02T08:36:04.379Z,21.7
2022-11-02T08:37:04.375Z,21.7
2022-11-02T08:38:04.509Z,21.7
2022-11-02T08:39:04.377Z,21.6
2022-11-02T08:40:04.383Z,21.6
2022-11-02T08:41:04.466Z,21.7
2022-11-02T08:42:04.392Z,21.6
2022-11-02T08:43:04.429Z,21.6
2022-11-02T08:44:04.393Z,21.6
2022-11-02T08:45:04.391Z,21.6
2022-11-02T08:46:16.093Z,21.6
2022-11-02T08:47:06.941Z,21.6
2022-11-02T08:48:04.639Z,21.6
2022-11-02T08:49:04.375Z,21.6
2022-11-02T08:50:04.386Z,21.6
2022-11-02T08:51:04.386Z,21.6
2022-11-02T08:52:04.378Z,21.6
2022-11-02T08:53:04.421Z,21.6
2022-11-02T08:55:55.575Z,21.4
2022-11-02T08:56:04.342Z,21.4
2022-11-02T08:57:04.287Z,21.6
2022-11-02T08:58:04.560Z,21.6
2022-11-02T08:59:04.322Z,21.6
2022-11-02T09:00:04.279Z,21.6
2022-11-02T09:01:04.283Z,21.6
2022-11-02T09:02:04.402Z,21.6
2022-11-02T09:03:04.400Z,21.6
2022-11-02T09:04:04.288Z,21.6
2022-11-02T09:05:04.358Z,21.6
2022-11-02T09:06:04.289Z,21.6
2022-11-02T09:07:04.284Z,21.6
2022-11-02T09:08:04.492Z,21.6
2022-11-02T09:09:04.298Z,21.6
2022-11-02T09:10:04.294Z,21.6
2022-11-02T09:11:04.317Z,21.6
2022-11-02T09:12:04.295Z,21.6
2022-11-02T09:13:04.494Z,21.6
2022-11-02T09:14:04.382Z,21.6
2022-11-02T09:15:04.287Z,21.6
2022-11-02T09:16:04.288Z,21.7
2022-11-02T09:17:04.317Z,21.7
2022-11-02T09:18:04.495Z,21.7
2022-11-02T09:19:04.293Z,21.7
2022-11-02T09:20:04.300Z,21.7
2022-11-02T09:21:04.284Z,21.7
2022-11-02T09:22:05.857Z,21.7
2022-11-02T09:23:04.340Z,21.7
2022-11-02T09:24:04.333Z,21.7
2022-11-02T09:25:04.294Z,21.7
2022-11-02T09:26:04.289Z,21.7
2022-11-02T09:27:04.294Z,21.7
2022-11-02T09:28:04.338Z,21.7
2022-11-02T09:29:04.325Z,21.7
2022-11-02T09:30:04.302Z,21.7
2022-11-02T09:31:07.328Z,21.7
2022-11-02T09:32:04.301Z,21.7
2022-11-02T09:33:04.492Z,21.7
2022-11-02T09:34:04.304Z,21.7
2022-11-02T09:35:04.341Z,21.7
2022-11-02T09:36:04.301Z,21.7
2022-11-02T09:37:04.296Z,21.7
2022-11-02T09:38:04.300Z,21.7
2022-11-02T09:39:04.313Z,21.7
2022-11-02T09:40:04.292Z,21.7
2022-11-02T09:41:04.356Z,21.7
2022-11-02T09:42:04.296Z,21.7
2022-11-02T09:43:04.735Z,21.7
2022-11-02T09:44:04.306Z,21.7
2022-11-02T09:45:04.294Z,21.7
2022-11-02T09:46:04.325Z,21.7
2022-11-02T09:47:55.910Z,21.7
2022-11-02T09:48:18.622Z,21.4
2022-11-02T09:49:04.382Z,21.6
2022-11-02T09:50:04.299Z,21.6
2022-11-02T09:51:04.302Z,21.6
2022-11-02T09:52:04.299Z,21.6
2022-11-02T09:53:04.619Z,21.7
2022-11-02T09:54:04.307Z,21.7
2022-11-02T09:55:04.290Z,21.6
2022-11-02T09:56:04.298Z,21.6
2022-11-02T09:57:04.304Z,21.7
2022-11-02T09:58:04.583Z,21.7
2022-11-02T09:59:04.327Z,21.7
2022-11-02T10:00:04.305Z,21.7
2022-11-02T10:01:04.302Z,21.7
2022-11-02T10:02:04.310Z,21.7
2022-11-02T10:03:04.321Z,21.7
2022-11-02T10:04:04.311Z,21.7
2022-11-02T10:05:04.331Z,21.7
2022-11-02T10:06:04.311Z,21.7
2022-11-02T10:07:04.310Z,21.7
2022-11-02T10:08:04.541Z,21.7
2022-11-02T10:09:04.317Z,21.7
2022-11-02T10:10:04.303Z,21.7
2022-11-02T10:11:08.063Z,21.7
2022-11-02T10:12:04.308Z,21.7
2022-11-02T10:13:11.055Z,21.6
2022-11-02T10:14:03.741Z,21.7
2022-11-02T10:15:03.745Z,21.7
2022-11-02T10:16:03.745Z,21.7
2022-11-02T10:17:03.792Z,21.7
2022-11-02T10:18:03.749Z,21.7
2022-11-02T10:19:03.755Z,21.7
2022-11-02T10:20:03.743Z,21.7
2022-11-02T10:21:03.749Z,21.7
2022-11-02T10:22:03.744Z,21.7
2022-11-02T10:23:04.179Z,21.7
2022-11-02T10:24:03.750Z,21.7
2022-11-02T10:25:03.765Z,21.7
2022-11-02T10:26:03.927Z,21.7
2022-11-02T10:27:03.748Z,21.7
2022-11-02T10:28:03.798Z,21.7
2022-11-02T10:29:03.781Z,21.7
2022-11-02T10:30:03.752Z,21.7
2022-11-02T10:31:03.761Z,21.7
2022-11-02T10:32:03.758Z,21.7
2022-11-02T10:33:03.976Z,21.7
2022-11-02T10:34:03.751Z,21.7
2022-11-02T10:35:17.966Z,21.7
2022-11-02T10:36:17.591Z,21.6
2022-11-02T10:37:03.752Z,21.6
2022-11-02T10:38:03.951Z,21.7
2022-11-02T10:39:03.782Z,21.7
2022-11-02T10:40:03.765Z,21.7
2022-11-02T10:41:03.811Z,21.7
2022-11-02T10:42:03.779Z,21.7
2022-11-02T10:43:03.756Z,21.7
2022-11-02T10:44:03.801Z,21.7
2022-11-02T10:45:03.776Z,21.7
2022-11-02T10:46:03.757Z,21.7
2022-11-02T10:47:03.841Z,21.7
2022-11-02T10:48:04.113Z,21.7
2022-11-02T10:49:03.813Z,21.7
2022-11-02T10:50:06.946Z,21.7
2022-11-02T10:51:03.766Z,21.6
2022-11-02T10:52:03.841Z,21.7
2022-11-02T10:53:26.944Z,21.7
2022-11-02T10:54:03.753Z,21.6
2022-11-02T10:55:03.768Z,21.6
2022-11-02T10:56:03.764Z,21.7
2022-11-02T10:57:03.768Z,21.7
2022-11-02T10:58:04.019Z,21.7
2022-11-02T10:59:03.797Z,21.7
2022-11-02T11:00:03.753Z,21.7
2022-11-02T11:01:03.811Z,21.7
2022-11-02T11:02:03.809Z,21.7
2022-11-02T11:03:03.781Z,21.7
2022-11-02T11:04:03.781Z,21.7
2022-11-02T11:05:03.795Z,21.7
2022-11-02T11:06:03.800Z,21.7
2022-11-02T11:07:03.799Z,21.7
2022-11-02T11:08:03.974Z,21.7
2022-11-02T11:09:03.773Z,21.7
2022-11-02T11:10:03.760Z,21.7
2022-11-02T11:11:03.796Z,21.7
2022-11-02T11:12:03.781Z,21.7
2022-11-02T11:13:04.054Z,21.7
2022-11-02T11:16:03.776Z,21.6
2022-11-02T11:20:05.938Z,21.6
2022-11-02T11:21:03.798Z,21.6
2022-11-02T11:22:50.087Z,21.6
2022-11-02T11:23:04.061Z,21.5
2022-11-02T11:24:03.831Z,21.6
2022-11-02T11:25:03.773Z,21.6
2022-11-02T11:26:03.780Z,21.7
2022-11-02T11:27:03.776Z,21.7
2022-11-02T11:28:03.985Z,21.7
2022-11-02T11:29:04.490Z,21.7
2022-11-02T11:30:03.763Z,21.7
2022-11-02T11:31:03.768Z,21.7
2022-11-02T11:32:03.771Z,21.7
2022-11-02T11:33:03.766Z,21.7
2022-11-02T11:34:03.819Z,21.7
2022-11-02T11:35:03.816Z,21.7
2022-11-02T11:36:03.766Z,21.7
2022-11-02T11:37:03.817Z,21.7
2022-11-02T11:38:04.196Z,21.7
2022-11-02T11:39:03.763Z,21.7
2022-11-02T11:40:03.785Z,21.7
2022-11-02T11:41:03.822Z,21.7
2022-11-02T11:42:03.792Z,21.7
2022-11-02T11:43:03.776Z,21.7
2022-11-02T11:44:03.873Z,21.7
2022-11-02T11:45:03.772Z,21.7
2022-11-02T11:46:05.731Z,21.7
2022-11-02T11:47:03.865Z,21.7
2022-11-02T11:48:04.744Z,21.7
2022-11-02T11:49:03.814Z,21.7
2022-11-02T11:50:11.765Z,21.7
2022-11-02T11:51:04.031Z,21.7
2022-11-02T11:52:03.793Z,21.7
2022-11-02T11:53:04.822Z,21.7
2022-11-02T11:54:03.792Z,21.7
2022-11-02T11:55:03.796Z,21.7
2022-11-02T11:56:03.796Z,21.7
2022-11-02T11:57:03.831Z,21.7
2022-11-02T11:58:04.288Z,21.7
2022-11-02T11:59:03.830Z,21.7
2022-11-02T12:00:03.823Z,21.7
2022-11-02T12:01:09.265Z,21.7
2022-11-02T12:02:04.197Z,21.7
2022-11-02T12:03:04.408Z,21.7
2022-11-02T12:04:04.639Z,21.7
2022-11-02T12:05:03.845Z,21.7
2022-11-02T12:06:03.892Z,21.7
2022-11-02T12:07:03.848Z,21.7
2022-11-02T12:08:03.848Z,21.7
2022-11-02T12:09:04.752Z,21.7
2022-11-02T12:10:03.793Z,21.7
2022-11-02T12:11:03.815Z,21.7
2022-11-02T12:12:04.930Z,21.7
2022-11-02T12:13:04.993Z,21.7
2022-11-02T12:14:03.912Z,21.7
2022-11-02T12:15:06.885Z,21.7
2022-11-02T12:17:54.104Z,21.5
2022-11-02T12:18:04.045Z,21.5
2022-11-02T12:19:05.104Z,21.7
2022-11-02T12:20:03.797Z,21.7
2022-11-02T12:21:03.830Z,21.7
2022-11-02T12:22:03.805Z,21.7
2022-11-02T12:23:04.204Z,21.7
2022-11-02T12:24:03.751Z,21.7
2022-11-02T12:25:03.692Z,21.7
2022-11-02T12:26:04.983Z,21.7
2022-11-02T12:27:03.985Z,21.7
2022-11-02T12:28:03.680Z,21.8
2022-11-02T12:29:03.695Z,21.8
2022-11-02T12:30:03.683Z,21.8
2022-11-02T12:31:03.685Z,21.8
2022-11-02T12:32:03.681Z,21.8
2022-11-02T12:33:04.073Z,21.8
2022-11-02T12:34:03.960Z,21.8
2022-11-02T12:35:28.775Z,21.8
2022-11-02T12:36:03.709Z,21.7
2022-11-02T12:37:37.175Z,21.7
2022-11-02T12:38:04.095Z,21.7
2022-11-02T12:39:03.736Z,21.7
2022-11-02T12:40:03.672Z,21.7
2022-11-02T12:41:04.795Z,21.8
2022-11-02T12:42:03.691Z,21.8
2022-11-02T12:43:03.937Z,21.8
2022-11-02T12:44:03.680Z,21.8
2022-11-02T12:45:03.739Z,21.8
2022-11-02T12:46:03.752Z,21.8
2022-11-02T12:47:03.716Z,21.8
2022-11-02T12:48:04.996Z,21.8
2022-11-02T12:49:03.737Z,21.8
2022-11-02T12:50:03.685Z,21.8
2022-11-02T12:51:03.699Z,21.8
2022-11-02T12:52:03.673Z,21.8
2022-11-02T12:53:04.023Z,21.8
2022-11-02T12:54:03.681Z,21.8
2022-11-02T12:55:03.687Z,21.8
2022-11-02T12:56:03.679Z,21.8
2022-11-02T12:57:03.702Z,21.8
2022-11-02T12:58:03.969Z,21.8
2022-11-02T12:59:03.673Z,21.8
2022-11-02T13:00:03.686Z,21.8
2022-11-02T13:01:03.808Z,21.8
2022-11-02T13:02:03.820Z,21.8
2022-11-02T13:03:04.135Z,21.8
2022-11-02T13:04:03.700Z,21.8
2022-11-02T13:05:03.679Z,21.8
2022-11-02T13:06:03.762Z,21.8
2022-11-02T13:07:03.693Z,21.8
2022-11-02T13:08:04.002Z,21.8
2022-11-02T13:09:03.753Z,21.8
2022-11-02T13:11:25.152Z,21.8
2022-11-02T13:11:29.103Z,21.6
2022-11-02T13:12:03.727Z,21.7
2022-11-02T13:13:03.970Z,21.8
2022-11-02T13:14:03.864Z,21.8
2022-11-02T13:15:07.917Z,21.8
2022-11-02T13:16:03.684Z,21.8
2022-11-02T13:17:03.704Z,21.8
2022-11-02T13:18:04.265Z,21.8
2022-11-02T13:19:03.741Z,21.8
2022-11-02T13:20:03.732Z,21.9
2022-11-02T13:21:03.921Z,21.8
2022-11-02T13:22:04.758Z,21.9
2022-11-02T13:23:03.920Z,21.9
2022-11-02T13:24:03.693Z,21.9
2022-11-02T13:25:03.689Z,21.9
2022-11-02T13:26:03.694Z,21.9
2022-11-02T13:27:14.127Z,21.9
2022-11-02T13:28:05.885Z,21.8